Time;durP1;ratioP1;P1;durP2;ratioP2;P2;SDS_P1;SDS_P2;PMS_P1;PMS_P2;Temp;Humidity;BMP_temperature;BMP_pressure;BME280_temperature;BME280_humidity;BME280_pressure;Samples;Min_cycle;Max_cycle;Signal;HPM_P1;HPM_P2
2021/04/16 00:00:49;;;;;;;20.67;17.53;;;;;;;2.03;86.80;99182.86;113232;1203;64366;-83
2021/04/16 00:03:16;;;;;;;20.10;16.30;;;;;;;2.02;86.71;99178.50;113362;1203;64327;-83
2021/04/16 00:05:43;;;;;;;19.60;16.30;;;;;;;2.01;86.65;99175.93;113502;1202;64416;-84
2021/04/16 00:08:18;;;;;;;20.57;16.57;;;;;;;2.02;86.86;99181.13;113569;1202;64429;-82
2021/04/16 00:10:50;;;;;;;17.90;15.10;;;;;;;2.02;86.77;99183.75;113424;1202;64391;-85
2021/04/16 00:13:19;;;;;;;17.13;12.83;;;;;;;1.97;87.15;99173.39;113736;1206;64452;-83
2021/04/16 00:15:48;;;;;;;16.83;14.30;;;;;;;1.97;87.02;99177.77;113573;1203;64407;-83
2021/04/16 00:18:18;;;;;;;16.45;13.80;;;;;;;1.94;86.87;99165.58;113387;1203;64483;-87
2021/04/16 00:20:46;;;;;;;19.45;16.35;;;;;;;1.97;87.04;99168.14;113328;1202;64563;-86
2021/04/16 00:23:13;;;;;;;19.53;16.07;;;;;;;1.97;86.83;99162.88;113195;1203;64419;-83
2021/04/16 00:25:39;;;;;;;16.25;14.45;;;;;;;1.97;87.14;99168.14;113242;1203;64401;-83
2021/04/16 00:28:08;;;;;;;17.20;14.40;;;;;;;1.96;86.85;99170.80;113213;1203;64561;-83
2021/04/16 00:30:48;;;;;;;16.60;14.60;;;;;;;1.96;86.98;99163.77;113264;1202;64394;-83
2021/04/16 00:33:15;;;;;;;17.73;13.70;;;;;;;1.97;87.15;99172.51;113258;1203;64471;-83
2021/04/16 00:35:43;;;;;;;21.60;16.80;;;;;;;1.94;86.96;99165.58;113477;1203;64343;-83
2021/04/16 00:38:12;;;;;;;15.90;13.75;;;;;;;1.90;87.07;99168.36;113296;1203;64928;-84
2021/04/16 00:40:43;;;;;;;17.70;14.25;;;;;;;1.87;87.39;99166.69;113481;1203;64416;-83
2021/04/16 00:43:13;;;;;;;16.00;13.80;;;;;;;1.87;87.33;99166.69;113423;1203;64391;-84
2021/04/16 00:45:40;;;;;;;18.40;14.60;;;;;;;1.87;87.24;99157.91;113844;1203;64409;-83
2021/04/16 00:48:15;;;;;;;16.27;14.63;;;;;;;1.86;87.34;99167.56;114397;1202;64365;-84
2021/04/16 00:50:48;;;;;;;16.03;13.80;;;;;;;1.85;87.24;99160.60;113788;1202;64381;-83
2021/04/16 00:53:17;;;;;;;18.90;15.30;;;;;;;1.87;87.36;99160.54;113638;1203;64471;-83
2021/04/16 00:55:45;;;;;;;17.70;15.80;;;;;;;1.89;87.49;99156.11;113579;1202;64847;-83
2021/04/16 00:58:12;;;;;;;18.25;15.70;;;;;;;1.90;87.33;99156.08;113551;1202;64391;-83
2021/04/16 01:00:42;;;;;;;20.90;15.37;;;;;;;1.91;87.30;99167.44;113754;1202;64327;-83
2021/04/16 01:03:11;;;;;;;23.93;18.97;;;;;;;1.86;87.15;99161.45;113454;1203;64327;-82
2021/04/16 01:05:37;;;;;;;21.90;17.40;;;;;;;1.84;87.38;99164.11;113361;1203;64324;-83
2021/04/16 01:08:06;;;;;;;29.00;20.47;;;;;;;1.84;87.38;99164.11;113364;1203;64384;-82
2021/04/16 01:10:33;;;;;;;27.45;21.45;;;;;;;1.85;87.51;99163.23;113219;1202;64410;-83
2021/04/16 01:13:01;;;;;;;23.23;17.20;;;;;;;1.83;87.40;99165.03;113335;1202;64455;-82
2021/04/16 01:15:33;;;;;;;26.77;19.30;;;;;;;1.82;87.45;99163.33;113207;1203;64388;-83
2021/04/16 01:18:09;;;;;;;24.10;18.50;;;;;;;1.82;87.42;99152.81;113211;1203;64468;-83
2021/04/16 01:20:40;;;;;;;26.53;20.63;;;;;;;1.83;87.33;99154.52;113276;1203;64517;-83
2021/04/16 01:23:46;;;;;;;27.90;20.73;;;;;;;1.80;87.83;99162.50;113237;1203;64317;-83
2021/04/16 01:26:17;;;;;;;41.73;28.43;;;;;;;1.80;87.60;99165.13;113282;1201;64474;-84
2021/04/16 01:28:44;;;;;;;44.45;27.60;;;;;;;1.77;87.55;99159.11;113231;1203;64471;-82
2021/04/16 01:31:17;;;;;;;38.90;25.83;;;;;;;1.77;87.47;99159.96;113172;1203;64315;-83
2021/04/16 01:33:45;;;;;;;37.10;26.70;;;;;;;1.80;87.78;99161.64;113317;1202;64411;-81
2021/04/16 01:36:19;;;;;;;38.20;27.50;;;;;;;1.79;87.52;99158.16;113470;1201;65958;-82
2021/04/16 01:38:46;;;;;;;38.30;26.30;;;;;;;1.76;87.53;99158.22;113376;1202;64391;-84
2021/04/16 01:41:14;;;;;;;40.53;26.63;;;;;;;1.74;87.33;99153.03;113413;1203;64369;-84
2021/04/16 01:43:43;;;;;;;38.13;24.03;;;;;;;1.74;87.45;99152.17;113604;1202;64445;-84
2021/04/16 01:46:17;;;;;;;38.95;25.65;;;;;;;1.73;87.29;99150.43;113339;1202;64394;-83
2021/04/16 01:48:47;;;;;;;39.45;24.85;;;;;;;1.73;87.59;99156.55;113335;1203;64458;-83
2021/04/16 01:51:27;;;;;;;37.80;25.27;;;;;;;1.72;87.50;99162.72;113250;1203;64400;-83
2021/04/16 01:54:06;;;;;;;39.57;26.03;;;;;;;1.74;87.71;99154.80;113197;1203;64387;-82
2021/04/16 01:56:34;;;;;;;37.35;24.05;;;;;;;1.75;87.82;99156.52;113174;1203;64544;-83
2021/04/16 01:59:00;;;;;;;36.80;25.50;;;;;;;1.73;87.48;99155.69;113201;1203;64343;-82
2021/04/16 02:01:27;;;;;;;40.00;27.45;;;;;;;1.73;87.78;99153.06;113299;1202;64921;-84
2021/04/16 02:03:54;;;;;;;44.20;29.20;;;;;;;1.73;87.71;99151.28;113543;1202;64422;-81
2021/04/16 02:06:20;;;;;;;43.25;27.60;;;;;;;1.72;87.48;99154.83;113347;1202;64388;-84
2021/04/16 02:08:47;;;;;;;44.95;29.10;;;;;;;1.73;87.71;99155.69;113311;1203;64429;-84
2021/04/16 02:11:14;;;;;;;37.60;25.40;;;;;;;1.71;87.81;99147.87;113286;1202;64420;-83
2021/04/16 02:13:41;;;;;;;41.15;27.00;;;;;;;1.69;87.52;99147.05;113224;1203;64535;-83
2021/04/16 02:16:09;;;;;;;38.90;24.85;;;;;;;1.69;87.58;99148.81;113391;1203;64544;-83
2021/04/16 02:18:36;;;;;;;41.10;26.80;;;;;;;1.70;87.68;99145.27;113270;1203;64448;-83
2021/04/16 02:21:03;;;;;;;38.45;27.45;;;;;;;1.73;87.58;99143.41;113255;1203;64365;-82
2021/04/16 02:23:29;;;;;;;45.20;28.85;;;;;;;1.75;87.56;99148.63;113216;1203;64503;-82
2021/04/16 02:25:56;;;;;;;45.80;27.00;;;;;;;1.77;87.84;99149.45;113252;1202;64404;-82
2021/04/16 02:28:22;;;;;;;50.65;31.85;;;;;;;1.77;87.64;99143.34;113230;1203;64403;-84
2021/04/16 02:30:49;;;;;;;43.65;27.55;;;;;;;1.75;87.68;99140.75;113173;1203;64371;-84
2021/04/16 02:33:15;;;;;;;42.20;27.77;;;;;;;1.72;87.86;99143.47;113170;1202;64324;-84
2021/04/16 02:35:43;;;;;;;41.65;26.65;;;;;;;1.67;87.88;99140.11;113287;1203;64394;-83
2021/04/16 02:38:09;;;;;;;43.60;26.70;;;;;;;1.66;88.01;99140.99;113404;1203;64523;-82
2021/04/16 02:40:35;;;;;;;41.70;27.70;;;;;;;1.64;87.91;99132.32;113458;1203;64496;-84
2021/04/16 02:43:02;;;;;;;48.93;29.03;;;;;;;1.63;87.94;99136.69;113461;1202;64432;-83
2021/04/16 02:45:29;;;;;;;51.40;29.65;;;;;;;1.64;87.96;99130.55;113428;1203;64391;-83
2021/04/16 02:47:57;;;;;;;52.00;29.50;;;;;;;1.64;87.88;99130.55;113327;1202;64340;-83
2021/04/16 02:50:28;;;;;;;56.60;33.00;;;;;;;1.66;87.98;99133.11;113328;1202;64426;-86
2021/04/16 02:52:54;;;;;;;63.85;34.40;;;;;;;1.68;88.18;99133.94;113792;1203;64401;-85
2021/04/16 02:55:21;;;;;;;48.50;29.35;;;;;;;1.68;88.48;99137.42;113487;1203;64395;-84
2021/04/16 02:57:48;;;;;;;58.27;33.27;;;;;;;1.68;87.96;99137.42;113639;1202;64388;-82
2021/04/16 03:00:26;;;;;;;60.50;34.90;;;;;;;1.67;88.17;99138.34;113850;1203;64395;-83
2021/04/16 03:02:54;;;;;;;55.30;31.97;;;;;;;1.66;87.95;99138.37;113427;1203;64343;-83
2021/04/16 03:05:21;;;;;;;54.63;31.90;;;;;;;1.64;88.00;99137.58;113384;1203;64439;-85
2021/04/16 03:07:49;;;;;;;54.90;33.40;;;;;;;1.63;88.02;99138.46;113243;1203;64384;-83
2021/04/16 03:10:17;;;;;;;52.53;33.33;;;;;;;1.62;87.97;99142.00;113203;1203;64372;-83
2021/04/16 03:12:43;;;;;;;54.57;33.17;;;;;;;1.64;88.20;99146.31;113224;1203;64394;-83
2021/04/16 03:15:10;;;;;;;50.50;29.35;;;;;;;1.64;88.19;99138.43;113222;1203;64347;-83
2021/04/16 03:17:37;;;;;;;50.65;31.80;;;;;;;1.65;88.12;99136.66;113223;1201;64605;-83
2021/04/16 03:20:06;;;;;;;52.25;31.60;;;;;;;1.67;88.11;99135.71;113232;1202;64314;-83
2021/04/16 03:22:33;;;;;;;45.75;27.85;;;;;;;1.67;88.20;99133.08;113224;1203;64490;-82
2021/04/16 03:25:00;;;;;;;46.00;29.50;;;;;;;1.64;88.14;99135.80;113235;1202;64400;-83
2021/04/16 03:27:26;;;;;;;48.65;31.00;;;;;;;1.62;88.10;99134.98;113201;1203;64388;-83
2021/04/16 03:29:53;;;;;;;43.10;27.05;;;;;;;1.62;88.07;99132.35;113229;1202;64480;-83
2021/04/16 03:32:19;;;;;;;52.67;30.77;;;;;;;1.60;88.02;99131.53;113314;1203;64461;-83
2021/04/16 03:34:46;;;;;;;46.55;29.25;;;;;;;1.62;88.25;99139.38;113159;1203;64388;-83
2021/04/16 03:37:13;;;;;;;44.65;28.15;;;;;;;1.60;88.10;99144.66;113174;1203;64490;-83
2021/04/16 03:39:39;;;;;;;42.00;26.50;;;;;;;1.59;88.05;99142.09;113342;1203;64481;-83
2021/04/16 03:42:06;;;;;;;38.20;23.60;;;;;;;1.57;88.19;99152.63;113402;1203;65001;-83
2021/04/16 03:44:33;;;;;;;40.60;25.80;;;;;;;1.56;88.33;99142.19;113406;1203;64435;-83
2021/04/16 03:47:00;;;;;;;37.90;23.30;;;;;;;1.55;88.27;99138.67;113353;1202;64419;-83
2021/04/16 03:49:26;;;;;;;35.20;24.25;;;;;;;1.57;88.47;99133.39;113485;1203;64343;-83
2021/04/16 03:51:59;;;;;;;35.80;22.75;;;;;;;1.56;88.14;99137.79;113310;1203;64417;-83
2021/04/16 03:54:28;;;;;;;36.27;23.73;;;;;;;1.55;88.23;99141.30;113364;1203;64534;-83
2021/04/16 03:56:55;;;;;;;37.40;24.30;;;;;;;1.56;88.26;99140.42;113548;1203;64471;-83
2021/04/16 03:59:24;;;;;;;35.70;23.70;;;;;;;1.58;88.58;99137.73;113484;1203;64426;-83
2021/04/16 04:01:52;;;;;;;33.33;22.63;;;;;;;1.56;88.70;99135.16;113475;1202;64327;-83
2021/04/16 04:04:21;;;;;;;34.90;24.45;;;;;;;1.54;88.44;99137.81;113496;1203;64509;-84
2021/04/16 04:06:48;;;;;;;33.70;21.45;;;;;;;1.54;88.58;99134.34;113526;1203;64346;-84
2021/04/16 04:09:16;;;;;;;38.00;25.00;;;;;;;1.56;88.57;99139.56;113789;1203;64378;-85
2021/04/16 04:11:43;;;;;;;34.65;22.35;;;;;;;1.60;88.59;99139.41;113546;1203;64739;-83
2021/04/16 04:14:10;;;;;;;32.40;23.00;;;;;;;1.63;88.45;99136.69;113449;1203;64403;-84
2021/04/16 04:17:08;;;;;;;31.60;21.05;;;;;;;1.64;88.59;99138.43;113135;1203;64391;-84
2021/04/16 04:19:36;;;;;;;31.75;22.80;;;;;;;1.66;88.46;99143.63;113184;1202;64426;-84
2021/04/16 04:22:04;;;;;;;30.77;19.27;;;;;;;1.64;88.57;99134.95;113289;1202;64420;-84
2021/04/16 04:24:31;;;;;;;33.50;23.30;;;;;;;1.64;88.41;99142.83;113376;1203;64324;-84
2021/04/16 04:26:58;;;;;;;29.55;20.20;;;;;;;1.66;88.77;99140.99;113316;1203;64324;-84
2021/04/16 04:29:26;;;;;;;31.20;21.35;;;;;;;1.65;88.36;99136.66;113260;1203;64385;-84
2021/04/16 04:31:52;;;;;;;37.80;23.90;;;;;;;1.65;88.27;99144.53;113304;1203;64388;-84
2021/04/16 04:34:25;;;;;;;32.10;24.00;;;;;;;1.66;88.30;99146.25;113215;1203;64391;-83
2021/04/16 04:36:55;;;;;;;37.30;25.95;;;;;;;1.67;88.40;99146.22;113385;1203;64700;-84
2021/04/16 04:39:25;;;;;;;37.05;25.25;;;;;;;1.74;88.52;99144.30;113528;1203;64381;-85
2021/04/16 04:41:52;;;;;;;41.50;28.23;;;;;;;1.76;88.37;99139.83;113474;1202;64515;-84
2021/04/16 04:44:19;;;;;;;34.40;23.00;;;;;;;1.80;88.29;99146.73;113321;1202;64503;-82
2021/04/16 04:46:46;;;;;;;31.15;21.00;;;;;;;1.85;88.16;99144.84;113284;1203;64435;-84
2021/04/16 04:49:14;;;;;;;30.95;23.00;;;;;;;1.84;88.21;99145.72;113287;1203;64385;-84
2021/04/16 04:51:40;;;;;;;27.60;19.70;;;;;;;1.85;88.04;99144.84;113226;1203;64416;-83
2021/04/16 04:54:09;;;;;;;30.95;22.00;;;;;;;1.83;87.96;99148.41;113350;1202;64388;-82
2021/04/16 04:56:37;;;;;;;32.10;22.90;;;;;;;1.83;88.04;99149.27;113274;1203;64369;-83
2021/04/16 04:59:05;;;;;;;34.35;24.15;;;;;;;1.87;87.90;99152.66;113146;1203;64477;-83
2021/04/16 05:01:32;;;;;;;28.77;20.77;;;;;;;1.86;87.93;99154.42;113345;1203;64522;-82
2021/04/16 05:03:59;;;;;;;29.90;22.80;;;;;;;1.89;87.97;99150.85;113536;1203;64426;-82
2021/04/16 05:06:26;;;;;;;29.20;22.55;;;;;;;1.89;88.05;99156.11;113340;1203;64394;-82
2021/04/16 05:08:53;;;;;;;33.77;23.63;;;;;;;1.93;87.98;99152.50;113380;1202;64510;-83
2021/04/16 05:11:20;;;;;;;31.60;22.75;;;;;;;1.91;87.77;99155.16;113463;1203;64372;-84
2021/04/16 05:13:52;;;;;;;29.05;22.45;;;;;;;1.94;87.73;99156.83;113410;1203;64384;-82
2021/04/16 05:16:19;;;;;;;24.27;19.10;;;;;;;1.96;87.91;99155.03;113437;1203;64410;-83
2021/04/16 05:18:48;;;;;;;30.50;22.55;;;;;;;1.96;87.91;99160.28;113144;1203;64481;-83
2021/04/16 05:21:15;;;;;;;36.40;27.20;;;;;;;1.97;87.69;99160.26;113384;1202;64317;-83
2021/04/16 05:23:42;;;;;;;25.90;19.90;;;;;;;2.01;87.70;99153.13;113526;1202;64372;-86
2021/04/16 05:26:09;;;;;;;30.40;23.60;;;;;;;2.03;87.54;99159.20;113581;1203;64410;-83
2021/04/16 05:28:35;;;;;;;24.90;19.80;;;;;;;2.02;87.64;99162.72;113326;1203;64375;-84
2021/04/16 05:31:03;;;;;;;25.05;19.70;;;;;;;2.02;87.53;99152.21;113236;1203;64394;-85
2021/04/16 05:33:30;;;;;;;24.60;18.57;;;;;;;2.04;87.62;99155.66;113365;1203;64362;-83
2021/04/16 05:35:57;;;;;;;21.15;16.55;;;;;;;2.07;87.82;99149.45;113318;1203;64547;-85
2021/04/16 05:38:24;;;;;;;24.10;18.75;;;;;;;2.12;87.62;99161.55;113791;1203;64404;-84
2021/04/16 05:40:50;;;;;;;22.10;17.90;;;;;;;2.16;87.40;99159.70;113566;1203;64503;-83
2021/04/16 05:43:17;;;;;;;24.90;19.25;;;;;;;2.17;87.07;99153.53;113537;1202;64544;-84
2021/04/16 05:45:43;;;;;;;23.95;19.60;;;;;;;2.20;87.32;99159.55;113982;1202;64519;-84
2021/04/16 05:48:10;;;;;;;23.30;18.30;;;;;;;2.20;87.34;99158.69;113551;1203;64337;-84
2021/04/16 05:50:36;;;;;;;23.40;20.15;;;;;;;2.22;87.15;99156.88;113413;1203;64349;-84
2021/04/16 05:53:03;;;;;;;20.40;17.23;;;;;;;2.22;87.14;99164.77;113283;1202;64416;-86
2021/04/16 05:55:30;;;;;;;23.30;19.00;;;;;;;2.24;87.15;99155.08;113264;1203;64589;-83
2021/04/16 05:57:59;;;;;;;19.50;16.70;;;;;;;2.26;86.95;99157.64;113274;1203;64448;-82
2021/04/16 06:00:26;;;;;;;19.65;16.40;;;;;;;2.28;86.86;99156.69;113366;1202;64483;-83
2021/04/16 06:02:53;;;;;;;22.50;19.30;;;;;;;2.30;86.89;99154.88;113291;1203;64478;-82
2021/04/16 06:05:21;;;;;;;24.60;19.27;;;;;;;2.29;86.85;99158.42;113312;1202;64397;-83
2021/04/16 06:07:50;;;;;;;23.55;19.10;;;;;;;2.31;86.91;99156.58;113392;1202;64557;-83
2021/04/16 06:10:17;;;;;;;21.70;18.70;;;;;;;2.32;87.10;99154.84;113358;1203;64886;-88
2021/04/16 06:12:45;;;;;;;23.00;18.20;;;;;;;2.33;86.71;99153.92;113210;1203;64803;-83
2021/04/16 06:15:15;;;;;;;23.90;20.80;;;;;;;2.32;87.05;99149.58;113244;1202;64422;-82
2021/04/16 06:17:42;;;;;;;27.77;20.53;;;;;;;2.36;87.05;99151.19;113227;1203;64435;-82
2021/04/16 06:20:11;;;;;;;39.80;26.90;;;;;;;2.37;86.91;99155.53;113302;1203;64570;-80
2021/04/16 06:22:37;;;;;;;34.90;24.75;;;;;;;2.37;86.55;99148.52;113176;1203;64484;-82
2021/04/16 06:25:06;;;;;;;28.50;22.60;;;;;;;2.32;86.50;99147.80;113361;1203;64474;-82
2021/04/16 06:27:33;;;;;;;30.40;23.10;;;;;;;2.33;86.55;99144.25;113313;1203;64433;-82
2021/04/16 06:30:00;;;;;;;26.43;21.30;;;;;;;2.35;86.49;99147.70;113197;1202;64525;-82
2021/04/16 06:32:27;;;;;;;28.30;22.00;;;;;;;2.39;86.59;99140.57;113230;1203;64563;-83
2021/04/16 06:34:54;;;;;;;25.70;20.30;;;;;;;2.42;86.47;99145.73;113294;1203;64452;-83
2021/04/16 06:37:20;;;;;;;31.70;21.10;;;;;;;2.46;86.42;99141.25;113217;1203;64391;-83
2021/04/16 06:39:47;;;;;;;32.00;21.65;;;;;;;2.49;86.55;99149.04;113393;1203;64353;-81
2021/04/16 06:42:24;;;;;;;28.80;22.10;;;;;;;2.48;86.62;99145.56;113205;1203;64410;-81
2021/04/16 06:44:54;;;;;;;29.65;23.85;;;;;;;2.49;86.52;99160.42;113282;1203;64413;-82
2021/04/16 06:47:38;;;;;;;29.43;22.80;;;;;;;2.47;86.44;99151.70;113351;1206;64847;-82
2021/04/16 06:50:06;;;;;;;29.50;23.83;;;;;;;2.47;86.30;99145.59;113293;1203;64502;-82
2021/04/16 06:52:59;;;;;;;27.50;23.15;;;;;;;2.50;86.40;99148.12;113411;1203;64436;-83
2021/04/16 06:55:39;;;;;;;26.05;20.65;;;;;;;2.54;86.52;99155.02;113442;1203;64350;-81
2021/04/16 06:58:14;;;;;;;26.50;22.40;;;;;;;2.57;86.35;99155.77;113371;1203;64468;-84
2021/04/16 07:01:19;;;;;;;24.37;20.10;;;;;;;2.62;86.26;99155.63;113379;1203;64458;-83
2021/04/16 07:04:04;;;;;;;26.27;20.80;;;;;;;2.63;86.06;99160.86;113434;1203;64394;-82
2021/04/16 07:06:32;;;;;;;24.30;20.57;;;;;;;2.60;86.18;99153.03;113663;1203;64506;-83
2021/04/16 07:09:05;;;;;;;24.00;19.90;;;;;;;2.59;86.06;99163.63;113674;1202;64433;-82
2021/04/16 07:11:42;;;;;;;24.95;20.40;;;;;;;2.57;86.29;99158.41;113636;1203;64458;-82
2021/04/16 07:14:36;;;;;;;22.30;19.35;;;;;;;2.60;86.37;99155.67;113498;1203;64420;-82
2021/04/16 07:17:06;;;;;;;25.75;21.45;;;;;;;2.63;86.12;99150.34;113326;1202;64362;-82
2021/04/16 07:19:34;;;;;;;27.45;22.45;;;;;;;2.69;86.15;99153.68;113304;1203;64391;-83
2021/04/16 07:22:07;;;;;;;24.95;19.75;;;;;;;2.70;85.92;99145.72;113317;1202;64320;-82
2021/04/16 07:24:34;;;;;;;23.20;20.70;;;;;;;2.69;86.14;99159.80;113463;1202;64417;-83
2021/04/16 07:27:40;;;;;;;24.55;20.50;;;;;;;2.72;85.88;99157.06;113500;1202;64516;-83
2021/04/16 07:30:33;;;;;;;23.07;18.80;;;;;;;2.73;86.06;99155.28;113405;1202;64270;-81
2021/04/16 07:33:00;;;;;;;24.23;18.20;;;;;;;2.71;85.77;99154.47;113263;1202;64455;-82
2021/04/16 07:35:32;;;;;;;25.15;20.15;;;;;;;2.67;85.90;99158.98;113358;1203;64333;-82
2021/04/16 07:38:13;;;;;;;22.45;19.70;;;;;;;2.67;86.00;99161.61;113558;1203;64414;-83
2021/04/16 07:40:44;;;;;;;24.50;20.05;;;;;;;2.64;86.14;99157.30;113333;1202;64420;-83
2021/04/16 07:43:47;;;;;;;22.95;18.10;;;;;;;2.67;86.11;99153.72;113457;1203;64420;-83
2021/04/16 07:46:26;;;;;;;25.15;19.35;;;;;;;2.69;86.20;99156.31;113428;1203;64381;-83
2021/04/16 07:49:23;;;;;;;22.50;17.40;;;;;;;2.73;86.11;99148.24;113561;1203;64369;-82
2021/04/16 07:51:56;;;;;;;29.03;20.07;;;;;;;2.75;85.98;99148.20;113200;1203;64409;-82
2021/04/16 07:54:30;;;;;;;21.40;17.60;;;;;;;2.81;86.15;99154.11;113329;1203;64534;-84
2021/04/16 07:57:19;;;;;;;23.47;17.60;;;;;;;2.80;85.94;99151.55;113209;1202;64388;-83
2021/04/16 08:00:09;;;;;;;23.20;19.13;;;;;;;2.78;86.17;99154.22;113406;1202;64497;-83
2021/04/16 08:02:47;;;;;;;22.05;19.20;;;;;;;2.77;86.00;99160.41;113264;1203;64385;-82
2021/04/16 08:05:26;;;;;;;21.90;19.40;;;;;;;2.78;86.01;99158.63;113502;1203;64439;-82
2021/04/16 08:08:13;;;;;;;24.23;20.47;;;;;;;2.73;85.72;99150.88;113452;1202;64398;-82
2021/04/16 08:10:42;;;;;;;21.70;19.30;;;;;;;2.72;86.26;99157.06;113409;1203;64435;-83
2021/04/16 08:13:31;;;;;;;24.07;18.13;;;;;;;2.68;85.98;99168.58;113267;1203;64391;-83
2021/04/16 08:16:33;;;;;;;20.63;16.87;;;;;;;2.67;86.02;99164.23;113432;1203;64397;-83
2021/04/16 08:19:18;;;;;;;24.60;19.70;;;;;;;2.64;85.95;99170.46;113184;1202;64524;-83
2021/04/16 08:22:16;;;;;;;26.40;21.10;;;;;;;2.69;85.87;99164.20;113429;1203;64458;-86
2021/04/16 08:24:45;;;;;;;25.80;20.30;;;;;;;2.73;86.19;99168.44;113528;1203;64413;-85
2021/04/16 08:27:15;;;;;;;;;;;;;;;2.75;86.10;99169.26;113525;1210;64821;-84
2021/04/16 08:29:49;;;;;;;29.55;23.00;;;;;;;2.72;86.09;99169.36;113499;1203;64496;-82
2021/04/16 08:32:38;;;;;;;28.30;23.00;;;;;;;2.72;85.85;99166.73;113760;1203;64394;-83
2021/04/16 08:35:37;;;;;;;23.60;20.50;;;;;;;2.73;86.01;99164.03;113443;1203;64523;-84
2021/04/16 08:38:07;;;;;;;24.45;19.75;;;;;;;2.75;85.80;99169.26;113307;1203;64555;-83
2021/04/16 08:40:47;;;;;;;22.60;18.10;;;;;;;2.75;86.09;99169.26;113254;1202;64397;-82
2021/04/16 08:43:42;;;;;;;21.77;19.07;;;;;;;2.78;86.38;99171.78;113200;1203;64380;-82
2021/04/16 08:46:43;;;;;;;22.87;19.37;;;;;;;2.78;86.00;99175.27;113205;1203;64535;-82
2021/04/16 08:49:29;;;;;;;24.20;19.15;;;;;;;2.78;85.87;99174.42;113224;1203;64362;-83
2021/04/16 08:52:04;;;;;;;23.20;19.90;;;;;;;2.78;86.21;99174.42;113255;1203;64369;-83
2021/04/16 08:54:34;;;;;;;21.93;19.57;;;;;;;2.81;86.34;99177.80;113404;1203;64433;-81
2021/04/16 08:57:14;;;;;;;18.55;16.10;;;;;;;2.82;86.15;99173.42;113291;1202;64356;-82
2021/04/16 09:00:00;;;;;;;22.95;18.60;;;;;;;2.88;86.24;99172.36;113264;1203;64318;-82
2021/04/16 09:02:53;;;;;;;20.40;17.10;;;;;;;2.99;86.34;99178.13;113499;1202;64471;-82
2021/04/16 09:05:30;;;;;;;21.70;19.25;;;;;;;3.02;86.10;99160.44;113419;1203;64487;-82
2021/04/16 09:08:16;;;;;;;23.00;18.47;;;;;;;3.06;85.97;99172.60;113444;1203;64397;-82
2021/04/16 09:10:47;;;;;;;20.43;17.23;;;;;;;3.03;86.18;99170.08;113455;1202;64443;-82
2021/04/16 09:13:33;;;;;;;18.95;16.45;;;;;;;3.06;86.25;99177.02;113482;1203;64388;-82
2021/04/16 09:16:15;;;;;;;16.25;14.05;;;;;;;3.07;86.05;99162.92;113453;1203;64532;-82
2021/04/16 09:18:43;;;;;;;16.75;14.60;;;;;;;3.02;86.08;99178.87;113359;1203;64391;-83
2021/04/16 09:21:15;;;;;;;18.50;16.10;;;;;;;3.04;86.01;99178.83;113443;1203;64406;-82
2021/04/16 09:23:47;;;;;;;20.57;16.77;;;;;;;3.12;86.04;99186.47;113368;1203;64378;-82
2021/04/16 09:26:48;;;;;;;21.67;18.03;;;;;;;3.14;85.89;99174.98;113373;1203;64499;-83
2021/04/16 09:29:39;;;;;;;18.97;16.77;;;;;;;3.13;86.04;99190.81;113457;1203;64478;-82
2021/04/16 09:32:34;;;;;;;18.80;15.20;;;;;;;3.11;85.93;99190.89;113237;1203;64476;-82
2021/04/16 09:35:07;;;;;;;15.60;14.00;;;;;;;3.11;85.75;99187.36;113284;1203;64391;-83
2021/04/16 09:37:39;;;;;;;17.30;15.10;;;;;;;3.10;86.12;99185.66;113195;1202;64484;-83
2021/04/16 09:40:28;;;;;;;18.10;15.73;;;;;;;3.16;86.19;99181.06;113253;1203;64493;-82
2021/04/16 09:43:08;;;;;;;17.35;15.55;;;;;;;3.22;85.88;99182.63;113382;1203;64372;-84
2021/04/16 09:45:38;;;;;;;17.75;14.90;;;;;;;3.26;85.81;99178.95;113482;1203;64383;-83
2021/04/16 09:48:43;;;;;;;16.30;13.65;;;;;;;3.25;85.85;99180.73;113369;1203;64426;-82
2021/04/16 09:51:09;;;;;;;16.60;14.27;;;;;;;3.28;85.77;99185.03;113266;1203;64391;-83
2021/04/16 09:53:38;;;;;;;14.80;12.50;;;;;;;3.24;85.78;99178.17;113272;1203;64391;-83
2021/04/16 09:56:17;;;;;;;15.10;12.13;;;;;;;3.22;85.80;99180.84;113366;1202;64477;-82
2021/04/16 09:58:50;;;;;;;16.40;13.50;;;;;;;3.19;86.10;99175.69;113308;1202;64388;-82
2021/04/16 10:01:25;;;;;;;17.35;13.00;;;;;;;3.15;86.29;99189.00;113323;1203;64401;-82
2021/04/16 10:03:55;;;;;;;19.83;15.27;;;;;;;3.15;86.36;99175.83;113303;1203;64403;-82
2021/04/16 10:06:31;;;;;;;21.53;15.93;;;;;;;3.14;86.28;99180.25;113284;1203;64401;-82
2021/04/16 10:09:10;;;;;;;18.40;15.20;;;;;;;3.16;86.17;99175.80;113386;1203;64481;-82
2021/04/16 10:11:45;;;;;;;20.10;14.30;;;;;;;3.21;86.53;99180.88;113220;1202;64353;-82
2021/04/16 10:14:23;;;;;;;16.95;13.85;;;;;;;3.25;86.49;99179.88;113305;1203;64372;-82
2021/04/16 10:16:58;;;;;;;16.40;12.45;;;;;;;3.28;86.54;99179.77;113505;1202;64350;-83
2021/04/16 10:19:44;;;;;;;17.50;13.85;;;;;;;3.27;86.44;99175.42;113221;1203;64464;-82
2021/04/16 10:22:33;;;;;;;18.50;15.15;;;;;;;3.28;86.62;99174.50;113222;1203;64426;-82
2021/04/16 10:51:40;;;;;;;20.57;15.20;;;;;;;3.53;86.72;99166.61;113319;1203;64554;-83
2021/04/16 12:39:01;;;;;;;19.90;17.20;;;;;;;4.10;86.50;99188.25;113250;1203;64355;-83
2021/04/16 12:41:39;;;;;;;21.50;17.90;;;;;;;4.14;86.50;99185.45;113201;1202;64410;-81
2021/04/16 12:44:07;;;;;;;18.60;16.60;;;;;;;4.21;86.56;99187.84;113199;1203;64519;-75
2021/04/16 12:46:37;;;;;;;21.60;18.40;;;;;;;4.22;85.93;99190.44;113130;1202;64333;-75
2021/04/16 12:49:05;;;;;;;20.83;18.23;;;;;;;4.20;85.85;99186.98;113192;1202;64375;-75
2021/04/16 12:51:32;;;;;;;18.73;16.17;;;;;;;4.20;85.94;99194.05;113184;1202;64493;-75
2021/04/16 12:53:59;;;;;;;19.43;17.03;;;;;;;4.20;86.10;99192.27;113155;1202;64477;-76
2021/04/16 12:56:39;;;;;;;19.20;17.03;;;;;;;4.20;86.29;99194.91;113167;1202;64410;-75
2021/04/16 12:59:11;;;;;;;18.23;16.37;;;;;;;4.22;86.30;99195.72;113225;1202;64447;-75
2021/04/16 13:01:38;;;;;;;20.40;17.35;;;;;;;4.20;86.16;99186.14;113291;1203;64394;-75
2021/04/16 13:04:06;;;;;;;18.47;16.57;;;;;;;4.24;86.29;99187.72;113120;1202;64490;-76
2021/04/16 13:06:35;;;;;;;17.37;15.60;;;;;;;4.25;86.28;99189.46;113179;1203;64439;-76
2021/04/16 13:09:03;;;;;;;19.60;17.60;;;;;;;4.25;86.17;99185.04;113179;1202;64378;-76
2021/04/16 13:11:29;;;;;;;15.60;14.00;;;;;;;4.30;86.26;99182.23;113105;1203;64384;-76
2021/04/16 13:13:57;;;;;;;16.45;13.80;;;;;;;4.34;86.01;99174.12;113155;1203;64400;-76
2021/04/16 13:16:24;;;;;;;15.80;14.15;;;;;;;4.32;85.73;99178.63;113331;1203;64388;-76
2021/04/16 13:18:54;;;;;;;17.10;15.30;;;;;;;4.31;85.74;99176.03;113419;1203;64518;-76
2021/04/16 13:21:33;;;;;;;15.90;14.30;;;;;;;4.31;85.78;99181.30;113326;1203;64755;-76
2021/04/16 13:24:02;;;;;;;14.77;13.27;;;;;;;4.32;85.94;99186.53;113110;1203;64429;-76
2021/04/16 13:26:29;;;;;;;14.15;12.75;;;;;;;4.29;85.74;99178.74;113218;1203;64426;-76
2021/04/16 13:28:56;;;;;;;16.13;14.03;;;;;;;4.26;85.92;99186.75;113170;1203;64700;-76
2021/04/16 13:31:28;;;;;;;14.20;12.80;;;;;;;4.31;86.04;99182.16;113282;1202;64375;-78
2021/04/16 13:33:55;;;;;;;15.30;13.80;;;;;;;4.36;85.68;99187.27;113316;1203;64499;-77
2021/04/16 13:36:26;;;;;;;16.37;14.67;;;;;;;4.42;85.83;99187.02;113397;1202;64442;-77
2021/04/16 13:38:52;;;;;;;14.00;12.70;;;;;;;4.50;85.57;99184.08;113369;1203;64404;-76
2021/04/16 13:41:19;;;;;;;12.80;11.60;;;;;;;4.53;85.16;99192.76;113326;1203;64398;-77
2021/04/16 13:43:52;;;;;;;16.15;14.35;;;;;;;4.55;85.25;99182.98;113346;1203;64493;-76
2021/04/16 13:46:24;;;;;;;13.03;11.73;;;;;;;4.59;85.64;99184.59;113114;1203;64432;-76
2021/04/16 13:48:51;;;;;;;10.00;9.10;;;;;;;4.63;85.28;99182.67;113166;1203;64430;-76
2021/04/16 13:51:20;;;;;;;9.15;8.35;;;;;;;4.61;84.89;99189.82;113122;1202;64433;-76